createdAt,value
2022-11-16T00:01:46.984Z,5.88
2022-11-16T00:04:16.549Z,5.87
2022-11-16T00:06:59.225Z,5.50
2022-11-16T00:09:29.691Z,5.70
2022-11-16T00:11:59.532Z,5.47
2022-11-16T00:14:29.505Z,5.55
2022-11-16T00:17:18.876Z,5.30
2022-11-16T00:19:49.654Z,4.97
2022-11-16T00:22:18.192Z,5.40
2022-11-16T00:24:51.386Z,5.60
2022-11-16T00:27:20.122Z,6.20
2022-11-16T00:29:48.863Z,5.80
2022-11-16T00:32:17.470Z,6.00
2022-11-16T00:34:53.681Z,5.45
2022-11-16T00:37:23.753Z,6.03
2022-11-16T00:39:52.303Z,5.75
2022-11-16T00:42:20.908Z,6.07
2022-11-16T00:44:53.819Z,5.85
2022-11-16T00:47:22.666Z,5.88
2022-11-16T00:49:51.265Z,6.30
2022-11-16T00:52:19.935Z,5.95
2022-11-16T00:54:49.563Z,6.60
2022-11-16T00:57:18.536Z,6.20
2022-11-16T00:59:47.652Z,5.70
2022-11-16T01:02:16.271Z,6.22
2022-11-16T01:04:44.841Z,6.55
2022-11-16T01:07:13.671Z,6.10
2022-11-16T01:09:42.676Z,6.40
2022-11-16T01:12:13.842Z,6.30
2022-11-16T01:14:45.177Z,6.95
2022-11-16T01:17:14.017Z,5.95
2022-11-16T01:19:42.960Z,5.60
2022-11-16T01:22:11.593Z,6.45
2022-11-16T01:24:40.257Z,6.45
2022-11-16T01:27:09.212Z,6.38
2022-11-16T01:29:42.142Z,5.93
2022-11-16T01:32:10.595Z,6.63
2022-11-16T01:34:39.870Z,6.93
2022-11-16T01:37:21.855Z,6.82
2022-11-16T01:39:51.513Z,7.40
2022-11-16T01:42:20.956Z,7.18
2022-11-16T01:45:01.844Z,6.67
2022-11-16T01:47:30.884Z,6.13
2022-11-16T01:50:10.223Z,6.03
2022-11-16T01:52:45.578Z,5.85
2022-11-16T01:55:14.923Z,6.03
2022-11-16T01:57:59.209Z,6.07
2022-11-16T02:00:30.120Z,6.70
2022-11-16T02:03:13.396Z,6.38
2022-11-16T02:06:03.641Z,6.20
2022-11-16T02:09:05.605Z,6.68
2022-11-16T02:11:54.260Z,5.70
2022-11-16T02:14:43.865Z,6.15
2022-11-16T02:17:23.577Z,6.63
2022-11-16T02:20:14.595Z,5.78
2022-11-16T02:23:03.169Z,6.60
2022-11-16T02:25:42.980Z,5.90
2022-11-16T02:28:31.533Z,5.80
2022-11-16T02:31:06.468Z,6.07
2022-11-16T02:33:40.172Z,6.28
2022-11-16T02:36:13.431Z,6.15
2022-11-16T02:38:47.102Z,6.53
2022-11-16T02:41:19.647Z,5.93
2022-11-16T02:43:54.210Z,6.22
2022-11-16T02:46:29.528Z,6.47
2022-11-16T02:49:02.088Z,6.18
2022-11-16T02:51:31.605Z,5.70
2022-11-16T02:54:05.877Z,5.50
2022-11-16T02:56:44.319Z,6.20
2022-11-16T02:59:17.509Z,6.47
2022-11-16T03:01:55.930Z,6.07
2022-11-16T03:04:31.277Z,6.10
2022-11-16T03:07:03.284Z,6.07
2022-11-16T03:09:35.354Z,6.47
2022-11-16T03:12:06.039Z,5.75
2022-11-16T03:14:40.867Z,6.45
2022-11-16T03:17:15.988Z,6.33
2022-11-16T03:19:49.021Z,6.47
2022-11-16T03:22:23.362Z,6.75
2022-11-16T03:24:52.194Z,5.80
2022-11-16T03:27:30.018Z,6.60
2022-11-16T03:30:05.636Z,6.40
2022-11-16T03:32:44.728Z,6.75
2022-11-16T03:35:19.684Z,6.50
2022-11-16T03:37:51.765Z,6.75
2022-11-16T03:40:24.249Z,7.22
2022-11-16T03:42:53.949Z,6.63
2022-11-16T03:45:22.908Z,6.90
2022-11-16T03:47:55.386Z,6.32
2022-11-16T03:50:24.771Z,6.35
2022-11-16T03:52:53.004Z,7.10
2022-11-16T03:55:21.644Z,6.87
2022-11-16T03:57:49.931Z,6.82
2022-11-16T04:00:18.503Z,6.60
2022-11-16T04:02:49.786Z,6.82
2022-11-16T04:05:40.489Z,6.68
2022-11-16T04:08:33.408Z,6.57
2022-11-16T04:11:19.588Z,6.80
2022-11-16T04:14:09.224Z,7.30
2022-11-16T04:16:58.021Z,7.22
2022-11-16T04:19:44.019Z,7.35
2022-11-16T04:22:32.292Z,6.90
2022-11-16T04:25:08.780Z,7.35
2022-11-16T04:27:55.077Z,7.15
2022-11-16T04:30:23.807Z,7.05
2022-11-16T04:33:09.632Z,7.20
2022-11-16T04:35:55.746Z,7.20
2022-11-16T04:38:25.995Z,7.18
2022-11-16T04:40:54.824Z,7.60
2022-11-16T04:43:24.261Z,7.75
2022-11-16T04:46:10.318Z,6.93
2022-11-16T04:48:41.503Z,6.80
2022-11-16T04:51:11.311Z,6.20
2022-11-16T04:53:42.742Z,7.07
2022-11-16T04:56:22.555Z,7.07
2022-11-16T04:58:51.292Z,7.53
2022-11-16T05:01:39.887Z,7.43
2022-11-16T05:04:08.980Z,6.75
2022-11-16T05:06:37.589Z,6.80
2022-11-16T05:09:07.374Z,7.10
2022-11-16T05:11:36.291Z,7.78
2022-11-16T05:14:05.839Z,7.63
2022-11-16T05:16:40.388Z,7.63
2022-11-16T05:19:27.384Z,7.63
2022-11-16T05:21:56.268Z,7.47
2022-11-16T05:24:34.839Z,7.32
2022-11-16T05:27:06.041Z,7.10
2022-11-16T05:29:34.838Z,6.72
2022-11-16T05:32:07.133Z,6.53
2022-11-16T05:34:36.098Z,7.15
2022-11-16T05:37:05.291Z,6.93
2022-11-16T05:39:35.004Z,6.90
2022-11-16T05:42:03.592Z,7.10
2022-11-16T05:44:32.175Z,7.15
2022-11-16T05:47:00.857Z,6.75
2022-11-16T05:49:30.073Z,7.05
2022-11-16T05:51:59.974Z,7.33
2022-11-16T05:54:31.311Z,7.20
2022-11-16T05:57:03.140Z,6.05
2022-11-16T05:59:31.446Z,6.90
2022-11-16T06:02:04.003Z,7.60
2022-11-16T06:04:35.073Z,6.77
2022-11-16T06:07:03.781Z,6.57
2022-11-16T06:09:36.353Z,6.85
2022-11-16T06:12:15.675Z,6.63
2022-11-16T06:14:45.411Z,6.78
2022-11-16T06:17:14.646Z,6.53
2022-11-16T06:19:44.193Z,7.10
2022-11-16T06:22:12.878Z,6.85
2022-11-16T06:24:41.245Z,6.97
2022-11-16T06:27:09.939Z,6.32
2022-11-16T06:29:39.896Z,7.20
2022-11-16T06:32:09.107Z,6.70
2022-11-16T06:34:37.977Z,7.15
2022-11-16T06:37:06.928Z,7.18
2022-11-16T06:39:35.943Z,6.95
2022-11-16T06:42:04.320Z,6.87
2022-11-16T06:44:32.821Z,7.18
2022-11-16T06:47:05.510Z,6.57
2022-11-16T06:49:34.922Z,6.60
2022-11-16T06:52:08.388Z,6.80
2022-11-16T06:54:37.677Z,6.97
2022-11-16T06:57:06.612Z,6.85
2022-11-16T06:59:35.188Z,8.00
2022-11-16T07:02:04.046Z,7.30
2022-11-16T07:04:36.334Z,7.32
2022-11-16T07:07:06.333Z,7.33
2022-11-16T07:09:36.991Z,6.88
2022-11-16T07:12:06.345Z,6.93
2022-11-16T07:14:38.312Z,7.35
2022-11-16T07:17:09.998Z,7.15
2022-11-16T07:19:40.188Z,6.73
2022-11-16T07:22:09.408Z,7.05
2022-11-16T07:24:38.146Z,7.57
2022-11-16T07:27:08.828Z,7.53
2022-11-16T07:29:40.839Z,7.35
2022-11-16T07:32:44.211Z,6.93
2022-11-16T07:35:20.365Z,6.68
2022-11-16T07:37:48.932Z,7.35
2022-11-16T07:40:18.010Z,7.63
2022-11-16T07:42:47.830Z,8.90
2022-11-16T07:45:16.536Z,8.03
2022-11-16T07:47:53.542Z,7.68
2022-11-16T07:51:06.904Z,7.95
2022-11-16T07:53:41.236Z,7.00
2022-11-16T07:56:13.026Z,9.52
2022-11-16T07:58:43.159Z,8.37
2022-11-16T08:01:16.675Z,7.32
2022-11-16T08:03:48.380Z,7.78
2022-11-16T08:06:22.284Z,7.78
2022-11-16T08:08:57.808Z,8.35
2022-11-16T08:11:28.307Z,7.47
2022-11-16T08:14:02.917Z,8.30
2022-11-16T08:16:33.591Z,7.88
2022-11-16T08:19:13.408Z,7.75
2022-11-16T08:21:43.003Z,7.90
2022-11-16T08:24:11.550Z,8.13
2022-11-16T08:26:54.609Z,8.07
2022-11-16T08:29:22.748Z,7.35
2022-11-16T08:31:53.065Z,7.45
2022-11-16T08:34:23.396Z,7.60
2022-11-16T08:36:56.184Z,7.77
2022-11-16T08:39:30.954Z,7.65
2022-11-16T08:42:00.506Z,7.82
2022-11-16T08:44:29.110Z,7.20
2022-11-16T08:46:59.930Z,7.80
2022-11-16T08:49:35.398Z,7.43
2022-11-16T08:52:05.320Z,7.70
2022-11-16T08:54:36.494Z,7.50
2022-11-16T08:57:05.376Z,7.68
2022-11-16T08:59:37.089Z,7.43
2022-11-16T09:02:41.137Z,7.73
2022-11-16T09:05:12.089Z,7.75
2022-11-16T09:07:44.074Z,7.50
2022-11-16T09:10:12.646Z,7.97
2022-11-16T09:12:43.951Z,7.97
2022-11-16T09:15:12.451Z,7.73
2022-11-16T09:17:41.105Z,8.18
2022-11-16T09:20:15.500Z,7.88
2022-11-16T09:22:48.763Z,8.00
2022-11-16T09:25:19.115Z,8.93
2022-11-16T09:27:47.732Z,7.53
2022-11-16T09:30:17.651Z,8.18
2022-11-16T09:32:46.201Z,8.40
2022-11-16T09:35:14.965Z,7.53
2022-11-16T09:37:43.601Z,8.13
2022-11-16T09:40:13.667Z,8.10
2022-11-16T09:42:58.491Z,7.47
2022-11-16T09:45:44.015Z,8.10
2022-11-16T09:48:16.703Z,7.85
2022-11-16T09:50:56.710Z,7.97
2022-11-16T09:53:33.520Z,8.40
2022-11-16T09:56:37.130Z,7.90
2022-11-16T09:59:19.439Z,7.80
2022-11-16T10:01:51.629Z,7.47
2022-11-16T10:04:27.599Z,7.40
2022-11-16T10:07:11.194Z,7.43
2022-11-16T10:09:45.727Z,7.35
2022-11-16T10:12:23.216Z,7.28
2022-11-16T10:15:26.689Z,7.30
2022-11-16T10:18:09.508Z,6.85
2022-11-16T10:21:03.656Z,7.00
2022-11-16T10:23:49.893Z,6.88
2022-11-16T10:29:55.318Z,6.32
2022-11-16T10:32:34.904Z,5.85
2022-11-16T10:35:26.402Z,5.60
2022-11-16T10:38:44.096Z,6.30
2022-11-16T10:41:21.685Z,5.30
2022-11-16T10:43:51.812Z,5.53
2022-11-16T10:46:28.101Z,4.50
2022-11-16T10:49:07.741Z,4.77
2022-11-16T10:51:36.531Z,4.30
2022-11-16T10:54:05.369Z,4.30
2022-11-16T10:56:37.639Z,3.80
2022-11-16T10:59:09.315Z,3.30
2022-11-16T11:01:41.289Z,3.40
2022-11-16T11:04:21.361Z,3.20
2022-11-16T11:06:52.655Z,3.10
2022-11-16T11:09:29.717Z,3.10
2022-11-16T11:12:31.531Z,3.08
2022-11-16T11:15:08.762Z,3.33
2022-11-16T11:17:43.118Z,2.88
2022-11-16T11:20:25.037Z,3.00
2022-11-16T11:22:56.649Z,3.00
2022-11-16T11:25:29.799Z,2.88
2022-11-16T11:28:06.839Z,2.97
2022-11-16T11:30:37.629Z,2.80
2022-11-16T11:33:19.188Z,3.17
2022-11-16T11:36:01.929Z,2.28
2022-11-16T11:38:30.602Z,2.22
2022-11-16T11:41:01.074Z,2.30
2022-11-16T11:43:31.144Z,2.70
2022-11-16T11:46:13.554Z,2.70
2022-11-16T11:49:02.641Z,2.20
2022-11-16T11:51:47.517Z,2.20
2022-11-16T11:54:23.851Z,2.40
2022-11-16T11:56:52.458Z,2.15
2022-11-16T11:59:34.172Z,2.00
2022-11-16T12:02:22.164Z,2.00
2022-11-16T12:05:22.832Z,2.10
2022-11-16T12:08:07.871Z,2.00
2022-11-16T12:10:47.505Z,2.00
2022-11-16T12:13:39.660Z,2.05
2022-11-16T12:16:18.672Z,2.25
2022-11-16T12:19:14.224Z,2.47
2022-11-16T12:22:06.261Z,2.30
2022-11-16T12:25:00.377Z,2.10
2022-11-16T12:27:40.568Z,1.80
2022-11-16T12:30:13.105Z,2.15
2022-11-16T12:32:58.552Z,2.30
2022-11-16T12:35:41.651Z,2.23
2022-11-16T12:38:40.818Z,1.92
2022-11-16T12:41:38.823Z,1.60
2022-11-16T12:44:13.861Z,2.10
2022-11-16T12:46:56.949Z,3.00
2022-11-16T12:50:01.846Z,2.70
2022-11-16T12:56:47.563Z,2.58
2022-11-16T12:59:57.424Z,2.80
2022-11-16T13:02:44.005Z,2.70
2022-11-16T13:05:19.355Z,2.80
2022-11-16T13:07:59.330Z,2.55
2022-11-16T13:18:13.597Z,2.40
2022-11-16T13:20:54.666Z,2.30
2022-11-16T13:23:34.665Z,2.10
2022-11-16T13:26:45.513Z,2.30
2022-11-16T13:29:37.052Z,2.15
2022-11-16T13:32:15.118Z,2.10
2022-11-16T13:34:45.275Z,2.30
2022-11-16T13:37:53.148Z,2.08
2022-11-16T13:40:30.030Z,1.90
2022-11-16T13:43:18.676Z,2.08
2022-11-16T13:45:59.128Z,2.33
2022-11-16T13:48:34.849Z,1.97
2022-11-16T13:51:07.563Z,2.55
2022-11-16T13:56:29.550Z,2.45
2022-11-16T13:59:01.670Z,2.88
2022-11-16T14:05:42.500Z,2.85
2022-11-16T14:08:50.613Z,2.60
2022-11-16T14:11:43.538Z,2.50
2022-11-16T14:15:20.902Z,3.10
2022-11-16T14:18:27.431Z,3.10
2022-11-16T14:21:02.849Z,3.65
2022-11-16T14:24:05.976Z,3.80
2022-11-16T14:26:51.631Z,4.30
2022-11-16T14:29:40.597Z,4.20
2022-11-16T14:33:05.780Z,4.77
2022-11-16T14:40:17.079Z,4.30
2022-11-16T14:46:19.415Z,4.50
2022-11-16T14:52:45.703Z,4.35
2022-11-16T15:03:46.312Z,5.22
2022-11-16T15:07:10.692Z,5.37
2022-11-16T15:10:10.700Z,4.97
2022-11-16T15:28:06.640Z,3.80
2022-11-16T15:39:14.398Z,4.05
2022-11-16T15:43:10.903Z,3.97
2022-11-16T15:49:50.367Z,4.45
2022-11-16T15:52:46.333Z,4.60
2022-11-16T15:56:10.204Z,4.72
2022-11-16T15:59:16.557Z,4.37
2022-11-16T16:06:05.059Z,4.80
2022-11-16T16:08:54.739Z,3.85
2022-11-16T16:11:29.785Z,4.00
2022-11-16T16:17:33.565Z,4.50
2022-11-16T16:24:32.359Z,4.07
2022-11-16T16:27:16.318Z,4.82
2022-11-16T16:30:09.958Z,4.50
2022-11-16T16:32:43.232Z,4.93
2022-11-16T16:35:17.994Z,5.40
2022-11-16T16:38:50.192Z,5.07
2022-11-16T16:41:32.466Z,5.95
2022-11-16T16:44:03.862Z,7.00
2022-11-16T16:46:33.417Z,7.00
2022-11-16T16:49:01.859Z,6.78
2022-11-16T16:51:30.327Z,6.82
2022-11-16T16:53:58.845Z,6.22
2022-11-16T16:56:27.355Z,6.47
2022-11-16T16:58:55.764Z,5.93
2022-11-16T17:01:24.256Z,5.70
2022-11-16T17:03:53.738Z,6.00
2022-11-16T17:06:22.134Z,6.60
2022-11-16T17:08:50.657Z,6.60
2022-11-16T17:11:29.817Z,7.68
2022-11-16T17:13:59.239Z,7.00
2022-11-16T17:16:27.494Z,7.35
2022-11-16T17:18:57.541Z,9.07
2022-11-16T17:21:25.976Z,8.50
2022-11-16T17:23:54.393Z,9.00
2022-11-16T17:26:22.891Z,8.05
2022-11-16T17:28:51.358Z,8.38
2022-11-16T17:31:19.859Z,8.05
2022-11-16T17:33:48.258Z,8.40
2022-11-16T17:36:17.973Z,8.98
2022-11-16T17:38:46.675Z,9.05
2022-11-16T17:41:16.374Z,9.00
2022-11-16T17:43:45.952Z,9.00
2022-11-16T17:46:16.127Z,8.10
2022-11-16T17:48:45.738Z,8.27
2022-11-16T17:51:15.753Z,8.02
2022-11-16T17:53:45.402Z,7.90
2022-11-16T17:56:14.841Z,8.27
2022-11-16T17:58:45.096Z,8.20
2022-11-16T18:01:13.795Z,8.80
2022-11-16T18:03:42.471Z,8.23
2022-11-16T18:06:28.561Z,8.63
2022-11-16T18:08:58.479Z,8.25
2022-11-16T18:11:28.212Z,8.37
2022-11-16T18:13:58.413Z,13.15
2022-11-16T18:16:29.583Z,11.35
2022-11-16T18:19:03.665Z,8.57
2022-11-16T18:21:43.223Z,8.00
2022-11-16T18:24:13.895Z,8.67
2022-11-16T18:26:42.520Z,7.53
2022-11-16T18:29:12.811Z,7.78
2022-11-16T18:31:41.532Z,6.50
2022-11-16T18:34:09.986Z,6.97
2022-11-16T18:36:38.186Z,6.70
2022-11-16T18:39:06.772Z,7.35
2022-11-16T18:41:36.372Z,7.10
2022-11-16T18:44:06.235Z,7.47
2022-11-16T18:46:34.646Z,8.40
2022-11-16T18:49:04.279Z,8.37
2022-11-16T18:51:33.204Z,8.63
2022-11-16T18:54:01.695Z,8.73
2022-11-16T18:56:42.026Z,9.18
2022-11-16T18:59:22.026Z,10.25
2022-11-16T19:01:52.335Z,8.47
2022-11-16T19:04:20.556Z,9.10
2022-11-16T19:06:49.236Z,9.30
2022-11-16T19:09:19.296Z,9.50
2022-11-16T19:11:47.954Z,8.68
2022-11-16T19:14:16.352Z,10.63
2022-11-16T19:16:56.949Z,10.10
2022-11-16T19:19:30.116Z,9.80
2022-11-16T19:22:04.966Z,10.82
2022-11-16T19:24:34.300Z,7.80
2022-11-16T19:27:02.879Z,8.67
2022-11-16T19:29:33.463Z,8.40
2022-11-16T19:32:03.245Z,8.73
2022-11-16T19:34:33.471Z,8.93
2022-11-16T19:37:24.582Z,7.95
2022-11-16T19:39:53.196Z,7.20
2022-11-16T19:42:23.007Z,6.72
2022-11-16T19:44:52.322Z,6.50
2022-11-16T19:47:33.612Z,6.85
2022-11-16T19:50:02.460Z,6.03
2022-11-16T19:52:31.044Z,6.27
2022-11-16T19:54:59.842Z,7.35
2022-11-16T19:57:28.349Z,7.20
2022-11-16T19:59:57.338Z,6.03
2022-11-16T20:02:27.024Z,6.32
2022-11-16T20:04:55.446Z,6.20
2022-11-16T20:07:23.869Z,6.47
2022-11-16T20:09:53.542Z,5.95
2022-11-16T20:12:22.232Z,5.82
2022-11-16T20:14:50.770Z,6.05
2022-11-16T20:17:18.980Z,21.37
2022-11-16T20:19:48.474Z,8.90
2022-11-16T20:22:17.959Z,36.50
2022-11-16T20:24:46.302Z,9.48
2022-11-16T20:27:14.829Z,7.85
2022-11-16T20:29:43.098Z,12.77
2022-11-16T20:32:11.153Z,16.13
2022-11-16T20:34:39.211Z,10.80
2022-11-16T20:37:08.724Z,6.82
2022-11-16T20:39:37.200Z,6.57
2022-11-16T20:42:05.834Z,6.80
2022-11-16T20:44:34.454Z,8.07
2022-11-16T20:47:03.222Z,15.10
2022-11-16T20:49:31.782Z,7.45
2022-11-16T20:52:00.201Z,5.00
2022-11-16T20:54:30.029Z,5.43
2022-11-16T20:56:58.450Z,7.18
2022-11-16T20:59:41.491Z,12.05
2022-11-16T21:02:11.665Z,16.95
2022-11-16T21:04:39.718Z,11.90
2022-11-16T21:07:08.234Z,5.90
2022-11-16T21:09:58.319Z,18.10
2022-11-16T21:12:53.149Z,32.88
2022-11-16T21:15:22.069Z,6.22
2022-11-16T21:17:50.737Z,9.00
2022-11-16T21:20:28.179Z,14.67
2022-11-16T21:23:00.104Z,24.50
2022-11-16T21:25:29.872Z,13.77
2022-11-16T21:27:58.120Z,5.90
2022-11-16T21:30:26.603Z,5.22
2022-11-16T21:32:55.205Z,5.30
2022-11-16T21:35:26.226Z,4.82
2022-11-16T21:37:54.378Z,6.07
2022-11-16T21:40:23.123Z,5.40
2022-11-16T21:42:53.970Z,6.03
2022-11-16T21:45:22.375Z,7.40
2022-11-16T21:47:51.888Z,8.52
2022-11-16T21:50:36.034Z,8.68
2022-11-16T21:53:04.788Z,8.68
2022-11-16T21:55:33.473Z,9.75
2022-11-16T21:58:04.287Z,8.53
2022-11-16T22:00:32.924Z,8.45
2022-11-16T22:03:01.412Z,7.47
2022-11-16T22:05:53.094Z,7.15
2022-11-16T22:08:21.682Z,6.85
2022-11-16T22:10:51.806Z,6.80
2022-11-16T22:13:21.773Z,6.57
2022-11-16T22:15:50.374Z,6.30
2022-11-16T22:18:18.927Z,6.22
2022-11-16T22:20:48.897Z,6.85
2022-11-16T22:23:21.521Z,7.77
2022-11-16T22:25:51.075Z,7.28
2022-11-16T22:28:21.257Z,6.70
2022-11-16T22:30:52.166Z,6.00
2022-11-16T22:33:21.174Z,5.65
2022-11-16T22:35:49.888Z,6.90
2022-11-16T22:38:18.507Z,6.18
2022-11-16T22:40:51.211Z,7.00
2022-11-16T22:43:19.772Z,6.60
2022-11-16T22:45:48.543Z,6.68
2022-11-16T22:48:18.213Z,7.23
2022-11-16T22:50:46.399Z,6.97
2022-11-16T22:53:14.898Z,7.90
2022-11-16T22:55:43.522Z,6.40
2022-11-16T22:58:12.218Z,6.13
2022-11-16T23:00:42.294Z,6.20
2022-11-16T23:03:11.110Z,6.30
2022-11-16T23:05:40.838Z,6.65
2022-11-16T23:08:09.398Z,6.53
2022-11-16T23:10:58.539Z,7.00
2022-11-16T23:13:44.205Z,7.47
2022-11-16T23:16:12.528Z,7.00
2022-11-16T23:18:41.030Z,7.25
2022-11-16T23:21:28.204Z,7.03
2022-11-16T23:24:26.719Z,7.28
2022-11-16T23:27:16.021Z,8.63
2022-11-16T23:29:44.511Z,9.30
2022-11-16T23:32:14.954Z,9.02
2022-11-16T23:34:43.620Z,8.25
2022-11-16T23:37:13.224Z,10.27
2022-11-16T23:39:41.683Z,10.85
2022-11-16T23:42:33.612Z,11.35
2022-11-16T23:45:02.214Z,10.50
2022-11-16T23:47:33.848Z,8.88
2022-11-16T23:50:02.357Z,9.20
2022-11-16T23:52:32.039Z,8.30
2022-11-16T23:55:00.607Z,7.93
2022-11-16T23:57:29.081Z,7.72
